createdAt,value
2022-09-04T00:01:54.984Z,16.97
2022-09-04T00:04:21.964Z,17.07
2022-09-04T00:07:05.063Z,17.15
2022-09-04T00:10:09.742Z,17.00
2022-09-04T00:12:54.942Z,16.97
2022-09-04T00:15:31.387Z,17.03
2022-09-04T00:18:15.120Z,16.99
2022-09-04T00:20:48.467Z,16.87
2022-09-04T00:23:27.267Z,16.83
2022-09-04T00:26:22.996Z,16.77
2022-09-04T00:29:01.808Z,16.75
2022-09-04T00:31:38.870Z,16.73
2022-09-04T00:34:15.362Z,16.69
2022-09-04T00:36:50.148Z,16.69
2022-09-04T00:39:28.659Z,16.58
2022-09-04T00:42:34.917Z,16.53
2022-09-04T00:45:25.125Z,16.62
2022-09-04T00:47:57.702Z,16.63
2022-09-04T00:50:59.841Z,16.55
2022-09-04T00:53:48.027Z,16.55
2022-09-04T00:57:01.267Z,16.51
2022-09-04T01:00:02.361Z,16.38
2022-09-04T01:02:47.705Z,16.36
2022-09-04T01:05:33.254Z,16.29
2022-09-04T01:08:35.183Z,16.25
2022-09-04T01:11:19.476Z,16.24
2022-09-04T01:13:51.837Z,16.22
2022-09-04T01:16:32.651Z,16.24
2022-09-04T01:19:11.073Z,16.29
2022-09-04T01:21:52.912Z,16.24
2022-09-04T01:24:32.865Z,16.35
2022-09-04T01:27:24.396Z,16.31
2022-09-04T01:29:56.765Z,16.38
2022-09-04T01:32:32.929Z,16.31
2022-09-04T01:35:11.522Z,16.32
2022-09-04T01:37:42.249Z,16.48
2022-09-04T01:40:35.231Z,16.43
2022-09-04T01:43:11.367Z,16.35
2022-09-04T01:46:08.876Z,16.42
2022-09-04T01:48:47.307Z,16.38
2022-09-04T01:51:37.038Z,16.53
2022-09-04T01:54:03.500Z,16.45
2022-09-04T01:56:46.044Z,16.48
2022-09-04T01:59:38.996Z,16.34
2022-09-04T02:02:27.748Z,16.32
2022-09-04T02:05:06.340Z,16.25
2022-09-04T02:07:47.934Z,16.20
2022-09-04T02:10:27.067Z,16.21
2022-09-04T02:13:31.277Z,16.05
2022-09-04T02:15:58.644Z,16.13
2022-09-04T02:18:45.105Z,15.96
2022-09-04T02:21:18.152Z,16.05
2022-09-04T02:23:54.857Z,15.93
2022-09-04T02:26:50.480Z,15.91
2022-09-04T02:29:39.266Z,16.00
2022-09-04T02:32:24.374Z,16.00
2022-09-04T02:35:01.012Z,15.87
2022-09-04T02:37:54.723Z,15.90
2022-09-04T02:40:36.484Z,16.00
2022-09-04T02:43:27.331Z,15.97
2022-09-04T02:46:09.118Z,15.97
2022-09-04T02:49:07.449Z,15.89
2022-09-04T02:52:02.136Z,15.97
2022-09-04T02:54:58.040Z,15.86
2022-09-04T02:57:33.584Z,16.04
2022-09-04T03:00:21.216Z,15.93
2022-09-04T03:03:15.383Z,16.15
2022-09-04T03:05:51.319Z,15.98
2022-09-04T03:08:35.290Z,15.81
2022-09-04T03:11:22.521Z,15.81
2022-09-04T03:14:12.345Z,15.83
2022-09-04T03:16:46.850Z,15.77
2022-09-04T03:19:36.638Z,15.93
2022-09-04T03:22:14.442Z,15.74
2022-09-04T03:24:50.102Z,15.56
2022-09-04T03:27:18.989Z,15.64
2022-09-04T03:29:55.610Z,15.71
2022-09-04T03:32:31.293Z,15.69
2022-09-04T03:35:10.531Z,15.69
2022-09-04T03:37:55.600Z,15.67
2022-09-04T03:40:42.965Z,15.66
2022-09-04T03:43:37.285Z,15.70
2022-09-04T03:46:22.060Z,15.69
2022-09-04T03:49:18.899Z,15.83
2022-09-04T03:52:33.858Z,15.67
2022-09-04T03:55:23.400Z,15.80
2022-09-04T03:58:08.853Z,15.73
2022-09-04T04:01:21.669Z,15.73
2022-09-04T04:04:15.923Z,15.70
2022-09-04T04:06:53.948Z,15.78
2022-09-04T04:09:26.646Z,15.93
2022-09-04T04:12:39.379Z,15.80
2022-09-04T04:15:37.351Z,15.70
2022-09-04T04:18:24.408Z,15.62
2022-09-04T04:21:13.770Z,15.74
2022-09-04T04:24:18.174Z,15.70
2022-09-04T04:27:00.067Z,15.52
2022-09-04T04:29:45.793Z,15.52
2022-09-04T04:32:28.968Z,15.39
2022-09-04T04:35:04.514Z,15.36
2022-09-04T04:37:56.370Z,15.35
2022-09-04T04:40:28.877Z,15.47
2022-09-04T04:42:58.348Z,15.39
2022-09-04T04:46:08.819Z,15.53
2022-09-04T04:48:41.105Z,15.59
2022-09-04T04:51:26.510Z,15.47
2022-09-04T04:53:58.218Z,15.46
2022-09-04T04:56:46.263Z,15.43
2022-09-04T04:59:40.102Z,15.40
2022-09-04T05:02:17.235Z,15.47
2022-09-04T05:05:13.504Z,15.46
2022-09-04T05:08:03.879Z,15.62
2022-09-04T05:10:42.515Z,15.56
2022-09-04T05:13:39.301Z,15.60
2022-09-04T05:16:18.967Z,15.63
2022-09-04T05:19:13.836Z,15.67
2022-09-04T05:21:55.715Z,15.81
2022-09-04T05:24:29.043Z,15.66
2022-09-04T05:27:17.802Z,15.74
2022-09-04T05:30:16.879Z,15.86
2022-09-04T05:33:10.863Z,15.87
2022-09-04T05:36:00.183Z,15.97
2022-09-04T05:38:36.167Z,15.86
2022-09-04T05:41:10.768Z,15.83
2022-09-04T05:43:52.386Z,15.87
2022-09-04T05:47:02.829Z,15.87
2022-09-04T05:49:54.106Z,15.93
2022-09-04T05:52:45.362Z,15.97
2022-09-04T05:55:33.641Z,16.17
2022-09-04T05:58:20.559Z,16.24
2022-09-04T06:01:20.654Z,16.43
2022-09-04T06:03:53.111Z,16.46
2022-09-04T06:06:27.824Z,16.45
2022-09-04T06:09:46.264Z,16.62
2022-09-04T06:12:19.313Z,16.72
2022-09-04T06:15:13.049Z,16.71
2022-09-04T06:17:53.301Z,16.80
2022-09-04T06:20:41.788Z,16.94
2022-09-04T06:23:11.519Z,17.00
2022-09-04T06:25:44.372Z,17.03
2022-09-04T06:28:39.417Z,17.23
2022-09-04T06:34:26.233Z,17.41
2022-09-04T06:37:38.313Z,17.45
2022-09-04T06:40:39.887Z,17.55
2022-09-04T06:43:32.679Z,17.52
2022-09-04T06:46:18.261Z,17.62
2022-09-04T06:49:21.314Z,17.71
2022-09-04T06:52:29.216Z,17.75
2022-09-04T06:55:08.415Z,17.73
2022-09-04T06:57:55.655Z,17.72
2022-09-04T07:00:22.282Z,17.79
2022-09-04T07:03:33.685Z,17.83
2022-09-04T07:06:14.732Z,17.79
2022-09-04T07:08:59.818Z,17.91
2022-09-04T07:11:51.440Z,17.96
2022-09-04T07:14:33.368Z,18.20
2022-09-04T07:17:24.523Z,18.52
2022-09-04T07:20:07.475Z,18.37
2022-09-04T07:22:56.849Z,18.50
2022-09-04T07:25:39.766Z,18.81
2022-09-04T07:28:28.255Z,19.15
2022-09-04T07:31:07.002Z,19.78
2022-09-04T07:33:52.045Z,20.21
2022-09-04T07:36:38.308Z,20.25
2022-09-04T07:39:23.077Z,20.73
2022-09-04T07:41:59.637Z,20.57
2022-09-04T07:44:48.218Z,20.91
2022-09-04T07:47:18.739Z,21.20
2022-09-04T07:49:49.285Z,21.52
2022-09-04T07:52:27.162Z,21.62
2022-09-04T07:55:09.078Z,21.65
2022-09-04T07:58:18.932Z,21.90
2022-09-04T08:01:07.382Z,22.37
2022-09-04T08:03:59.347Z,22.74
2022-09-04T08:06:37.817Z,22.09
2022-09-04T08:09:09.597Z,22.99
2022-09-04T08:11:49.426Z,22.98
2022-09-04T08:14:30.003Z,22.72
2022-09-04T08:17:25.495Z,23.32
2022-09-04T08:20:14.169Z,23.38
2022-09-04T08:22:58.705Z,23.80
2022-09-04T08:25:27.707Z,23.29
2022-09-04T08:28:03.197Z,23.07
2022-09-04T08:30:41.894Z,23.30
2022-09-04T08:33:40.696Z,23.52
2022-09-04T08:36:22.331Z,23.97
2022-09-04T08:39:31.567Z,24.25
2022-09-04T08:42:35.982Z,24.73
2022-09-04T08:45:22.408Z,23.96
2022-09-04T08:48:23.010Z,23.84
2022-09-04T08:51:29.386Z,24.73
2022-09-04T08:54:10.803Z,24.90
2022-09-04T08:57:03.052Z,24.34
2022-09-04T08:59:53.337Z,24.62
2022-09-04T09:02:38.617Z,24.95
2022-09-04T09:05:31.530Z,25.68
2022-09-04T09:08:45.339Z,25.95
2022-09-04T09:11:47.811Z,25.99
2022-09-04T09:14:27.725Z,26.18
2022-09-04T09:17:12.528Z,26.36
2022-09-04T09:19:44.427Z,27.24
2022-09-04T09:22:24.016Z,26.84
2022-09-04T09:25:11.294Z,26.60
2022-09-04T09:27:43.929Z,26.36
2022-09-04T09:30:18.172Z,27.20
2022-09-04T09:33:06.546Z,27.43
2022-09-04T09:36:18.842Z,27.07
2022-09-04T09:39:06.887Z,27.68
2022-09-04T09:42:01.464Z,27.45
2022-09-04T09:44:56.226Z,27.82
2022-09-04T09:47:59.494Z,27.70
2022-09-04T09:51:05.082Z,27.43
2022-09-04T09:54:08.787Z,27.38
2022-09-04T09:57:27.306Z,27.52
2022-09-04T10:00:08.196Z,27.39
2022-09-04T10:03:12.581Z,27.97
2022-09-04T10:06:06.634Z,28.33
2022-09-04T10:08:54.150Z,28.40
2022-09-04T10:11:41.096Z,28.37
2022-09-04T10:14:25.663Z,28.86
2022-09-04T10:17:01.078Z,29.12
2022-09-04T10:19:54.987Z,28.84
2022-09-04T10:22:32.181Z,29.02
2022-09-04T10:25:17.614Z,28.89
2022-09-04T10:28:00.070Z,28.86
2022-09-04T10:30:49.654Z,28.67
2022-09-04T10:33:30.214Z,28.47
2022-09-04T10:36:09.996Z,28.60
2022-09-04T10:39:03.260Z,29.12
2022-09-04T10:41:45.975Z,30.05
2022-09-04T10:44:34.489Z,29.50
2022-09-04T10:47:28.090Z,29.70
2022-09-04T10:50:13.469Z,30.12
2022-09-04T10:53:13.597Z,29.50
2022-09-04T10:55:58.885Z,30.29
2022-09-04T10:58:39.933Z,30.96
2022-09-04T11:01:18.894Z,31.09
2022-09-04T11:04:00.827Z,31.16
2022-09-04T11:06:52.910Z,30.79
2022-09-04T11:09:44.133Z,30.01
2022-09-04T11:12:10.622Z,29.91
2022-09-04T11:15:15.558Z,30.22
2022-09-04T11:17:42.047Z,29.80
2022-09-04T11:20:19.310Z,29.54
2022-09-04T11:23:19.977Z,30.12
2022-09-04T11:26:05.827Z,31.04
2022-09-04T11:28:56.091Z,31.37
2022-09-04T11:31:39.947Z,31.87
2022-09-04T11:34:26.570Z,31.74
2022-09-04T11:37:22.858Z,31.60
2022-09-04T11:39:55.281Z,31.72
2022-09-04T11:42:21.931Z,31.94
2022-09-04T11:45:17.396Z,31.51
2022-09-04T11:48:13.303Z,30.92
2022-09-04T11:51:01.546Z,30.87
2022-09-04T11:53:55.312Z,29.29
2022-09-04T11:56:40.836Z,29.30
2022-09-04T11:59:10.305Z,28.95
2022-09-04T12:01:49.344Z,29.45
2022-09-04T12:04:43.038Z,27.92
2022-09-04T12:07:43.101Z,28.34
2022-09-04T12:10:43.031Z,28.31
2022-09-04T12:13:47.353Z,28.54
2022-09-04T12:16:33.037Z,28.38
2022-09-04T12:19:20.184Z,28.75
2022-09-04T12:22:07.283Z,29.78
2022-09-04T12:24:49.207Z,30.87
2022-09-04T12:27:24.893Z,30.92
2022-09-04T12:30:10.911Z,31.16
2022-09-04T12:33:19.881Z,31.44
2022-09-04T12:36:16.882Z,30.29
2022-09-04T12:39:03.674Z,30.05
2022-09-04T12:41:44.073Z,29.40
2022-09-04T12:44:27.339Z,28.82
2022-09-04T12:47:09.067Z,28.64
2022-09-04T12:49:58.836Z,28.61
2022-09-04T12:53:09.390Z,28.61
2022-09-04T12:55:49.265Z,28.94
2022-09-04T12:58:37.784Z,29.12
2022-09-04T13:01:21.772Z,28.85
2022-09-04T13:04:14.775Z,29.06
2022-09-04T13:07:06.969Z,29.93
2022-09-04T13:09:59.025Z,30.18
2022-09-04T13:12:43.888Z,30.22
2022-09-04T13:15:22.766Z,30.10
2022-09-04T13:18:01.691Z,29.76
2022-09-04T13:20:59.518Z,29.25
2022-09-04T13:23:47.398Z,29.63
2022-09-04T13:26:31.851Z,29.69
2022-09-04T13:29:17.030Z,29.74
2022-09-04T13:32:13.984Z,29.50
2022-09-04T13:35:19.783Z,29.15
2022-09-04T13:37:55.925Z,28.38
2022-09-04T13:40:47.222Z,28.63
2022-09-04T13:43:32.275Z,28.57
2022-09-04T13:46:04.287Z,28.58
2022-09-04T13:48:46.689Z,28.38
2022-09-04T13:51:13.535Z,28.38
2022-09-04T13:54:08.107Z,28.26
2022-09-04T13:57:05.065Z,28.09
2022-09-04T13:59:32.118Z,27.96
2022-09-04T14:02:02.391Z,27.90
2022-09-04T14:04:35.150Z,28.41
2022-09-04T14:07:07.153Z,28.10
2022-09-04T14:09:43.864Z,28.09
2022-09-04T14:12:13.611Z,28.82
2022-09-04T14:15:13.635Z,29.47
2022-09-04T14:17:55.246Z,30.08
2022-09-04T14:20:51.442Z,30.10
2022-09-04T14:23:27.111Z,30.73
2022-09-04T14:26:20.524Z,31.10
2022-09-04T14:29:15.681Z,31.77
2022-09-04T14:32:19.860Z,32.33
2022-09-04T14:35:12.759Z,31.87
2022-09-04T14:38:19.159Z,31.84
2022-09-04T14:40:49.372Z,31.29
2022-09-04T14:44:03.344Z,30.63
2022-09-04T14:46:51.297Z,30.25
2022-09-04T14:49:23.285Z,29.20
2022-09-04T14:51:56.807Z,29.54
2022-09-04T14:54:27.335Z,29.49
2022-09-04T14:57:01.967Z,29.72
2022-09-04T14:59:34.303Z,29.47
2022-09-04T15:02:17.357Z,29.26
2022-09-04T15:05:07.460Z,28.72
2022-09-04T15:07:43.129Z,28.92
2022-09-04T15:10:24.318Z,29.00
2022-09-04T15:13:13.325Z,28.89
2022-09-04T15:15:46.692Z,28.74
2022-09-04T15:18:26.403Z,29.19
2022-09-04T15:21:02.139Z,29.39
2022-09-04T15:23:47.504Z,30.33
2022-09-04T15:26:46.369Z,29.73
2022-09-04T15:29:19.200Z,29.49
2022-09-04T15:31:46.436Z,29.80
2022-09-04T15:34:24.368Z,29.88
2022-09-04T15:36:51.126Z,30.66
2022-09-04T15:39:49.061Z,29.91
2022-09-04T15:42:40.608Z,29.63
2022-09-04T15:45:23.607Z,29.94
2022-09-04T15:48:08.286Z,29.40
2022-09-04T15:50:50.127Z,28.88
2022-09-04T15:53:34.400Z,29.37
2022-09-04T15:56:31.026Z,29.94
2022-09-04T15:59:16.094Z,29.87
2022-09-04T16:02:12.641Z,30.20
2022-09-04T16:05:11.594Z,30.61
2022-09-04T16:07:54.712Z,30.24
2022-09-04T16:10:36.312Z,29.88
2022-09-04T16:13:29.327Z,29.91
2022-09-04T16:16:24.266Z,29.72
2022-09-04T16:19:07.216Z,29.00
2022-09-04T16:21:59.013Z,29.51
2022-09-04T16:24:29.761Z,29.66
2022-09-04T16:26:56.805Z,29.77
2022-09-04T16:29:36.734Z,29.95
2022-09-04T16:32:09.948Z,30.14
2022-09-04T16:34:45.290Z,29.35
2022-09-04T16:37:36.235Z,28.79
2022-09-04T16:40:18.112Z,29.18
2022-09-04T16:42:47.659Z,29.62
2022-09-04T16:45:21.797Z,29.46
2022-09-04T16:48:33.396Z,29.00
2022-09-04T16:51:40.035Z,28.67
2022-09-04T16:54:28.696Z,28.60
2022-09-04T16:57:17.332Z,28.33
2022-09-04T16:59:52.000Z,28.36
2022-09-04T17:02:32.209Z,27.78
2022-09-04T17:05:28.154Z,28.27
2022-09-04T17:08:10.788Z,28.40
2022-09-04T17:10:57.263Z,28.04
2022-09-04T17:13:32.133Z,27.94
2022-09-04T17:16:24.197Z,27.86
2022-09-04T17:18:55.561Z,27.59
2022-09-04T17:27:39.179Z,27.85
2022-09-04T17:28:59.415Z,27.66
2022-09-04T17:29:19.069Z,27.38
2022-09-04T17:30:59.886Z,27.68
2022-09-04T17:38:49.227Z,27.27
2022-09-04T17:40:48.980Z,26.98
2022-09-04T17:40:53.111Z,27.31
2022-09-04T17:43:22.332Z,27.01
2022-09-04T17:45:59.831Z,26.79
2022-09-04T17:48:42.111Z,26.62
2022-09-04T17:51:18.429Z,26.62
2022-09-04T17:53:55.418Z,26.42
2022-09-04T17:59:07.635Z,26.12
2022-09-04T18:01:42.305Z,25.94
2022-09-04T18:04:21.620Z,25.78
2022-09-04T18:07:28.753Z,25.64
2022-09-04T18:10:14.080Z,25.51
2022-09-04T18:12:57.610Z,25.50
2022-09-04T18:15:39.228Z,25.36
2022-09-04T18:18:12.508Z,25.27
2022-09-04T18:20:57.594Z,25.20
2022-09-04T18:23:52.029Z,25.00
2022-09-04T18:26:39.989Z,24.90
2022-09-04T18:30:26.093Z,24.82
2022-09-04T18:37:09.009Z,24.75
2022-09-04T18:37:19.201Z,24.52
2022-09-04T18:38:09.884Z,24.34
2022-09-04T18:42:31.589Z,24.22
2022-09-04T18:50:22.453Z,24.21
2022-09-04T18:50:39.985Z,24.00
2022-09-04T18:50:49.100Z,23.90
2022-09-04T18:52:17.870Z,23.71
2022-09-04T18:54:52.803Z,23.73
2022-09-04T18:57:49.175Z,23.60
2022-09-04T19:00:32.676Z,23.63
2022-09-04T19:03:22.227Z,23.59
2022-09-04T19:05:52.847Z,23.54
2022-09-04T19:08:31.738Z,23.32
2022-09-04T19:11:20.457Z,23.23
2022-09-04T19:13:51.425Z,23.11
2022-09-04T19:16:23.429Z,22.99
2022-09-04T19:19:09.148Z,22.85
2022-09-04T19:21:57.653Z,22.84
2022-09-04T19:24:46.930Z,22.85
2022-09-04T19:27:27.540Z,22.84
2022-09-04T19:30:18.313Z,22.78
2022-09-04T19:33:11.429Z,22.72
2022-09-04T19:35:41.168Z,22.71
2022-09-04T19:45:18.620Z,22.64
2022-09-04T19:46:06.529Z,22.71
2022-09-04T19:46:11.718Z,22.50
2022-09-04T19:47:28.742Z,22.47
2022-09-04T19:53:19.943Z,22.34
2022-09-04T19:53:30.287Z,22.39
2022-09-04T19:56:20.062Z,22.29
2022-09-04T19:58:53.220Z,22.20
2022-09-04T20:01:40.289Z,22.12
2022-09-04T20:04:11.620Z,22.00
2022-09-04T20:06:48.067Z,21.95
2022-09-04T20:09:37.056Z,21.83
2022-09-04T20:12:16.795Z,21.82
2022-09-04T20:14:55.246Z,21.71
2022-09-04T20:17:56.237Z,21.78
2022-09-04T20:20:32.357Z,21.78
2022-09-04T20:23:34.629Z,21.64
2022-09-04T20:26:07.058Z,21.56
2022-09-04T20:28:48.652Z,21.49
2022-09-04T20:31:36.802Z,21.45
2022-09-04T20:34:25.288Z,21.35
2022-09-04T20:37:01.728Z,21.42
2022-09-04T20:39:41.332Z,21.30
2022-09-04T20:42:27.988Z,21.30
2022-09-04T20:46:54.124Z,21.51
2022-09-04T20:52:43.656Z,21.20
2022-09-04T20:53:05.583Z,21.30
2022-09-04T20:54:32.715Z,21.28
2022-09-04T21:02:09.339Z,21.23
2022-09-04T21:03:10.759Z,20.97
2022-09-04T21:03:29.586Z,20.94
2022-09-04T21:06:17.806Z,20.80
2022-09-04T21:09:09.097Z,20.93
2022-09-04T21:11:44.521Z,20.79
2022-09-04T21:14:16.836Z,20.87
2022-09-04T21:17:33.609Z,20.90
2022-09-04T21:20:31.626Z,20.94
2022-09-04T21:23:05.663Z,20.98
2022-09-04T21:26:11.103Z,20.67
2022-09-04T21:29:06.162Z,20.48
2022-09-04T21:32:10.327Z,20.32
2022-09-04T21:34:54.480Z,20.59
2022-09-04T21:37:39.898Z,20.60
2022-09-04T21:40:50.236Z,20.53
2022-09-04T21:43:21.551Z,20.50
2022-09-04T21:46:33.563Z,20.50
2022-09-04T21:49:29.988Z,20.32
2022-09-04T21:52:12.798Z,20.33
2022-09-04T21:57:45.818Z,20.40
2022-09-04T22:02:38.451Z,20.39
2022-09-04T22:02:46.081Z,20.32
2022-09-04T22:04:22.993Z,20.25
2022-09-04T22:10:00.528Z,20.38
2022-09-04T22:13:32.635Z,20.36
2022-09-04T22:13:50.693Z,20.39
2022-09-04T22:16:36.080Z,20.43
2022-09-04T22:19:20.252Z,20.30
2022-09-04T22:22:16.049Z,20.36
2022-09-04T22:24:45.542Z,20.28
2022-09-04T22:28:07.882Z,20.26
2022-09-04T22:30:58.551Z,20.19
2022-09-04T22:33:27.772Z,20.26
2022-09-04T22:36:20.586Z,20.32
2022-09-04T22:39:15.571Z,20.42
2022-09-04T22:42:07.157Z,20.22
2022-09-04T22:45:09.257Z,20.08
2022-09-04T22:47:57.186Z,20.08
2022-09-04T22:50:49.309Z,20.28
2022-09-04T22:53:16.419Z,20.26
2022-09-04T22:56:24.488Z,19.95
2022-09-04T22:59:25.843Z,19.70
2022-09-04T23:02:16.460Z,19.84
2022-09-04T23:05:13.886Z,19.88
2022-09-04T23:13:46.135Z,19.66
2022-09-04T23:14:01.500Z,19.73
2022-09-04T23:14:06.740Z,19.75
2022-09-04T23:17:06.272Z,19.92
2022-09-04T23:24:37.776Z,19.85
2022-09-04T23:26:50.181Z,19.75
2022-09-04T23:26:59.299Z,19.68
2022-09-04T23:29:52.695Z,19.67
2022-09-04T23:32:40.543Z,19.54
2022-09-04T23:35:33.680Z,19.39
2022-09-04T23:38:20.059Z,19.28
2022-09-04T23:40:51.659Z,19.20
2022-09-04T23:43:46.293Z,19.23
2022-09-04T23:46:34.182Z,19.20
2022-09-04T23:49:18.049Z,19.16
2022-09-04T23:52:13.234Z,19.42
2022-09-04T23:54:58.025Z,19.23
